createdAt,value
2023-04-11T00:05:08.244Z,94059.00
2023-04-11T00:09:30.906Z,94053.00
2023-04-11T00:13:58.002Z,94059.00
2023-04-11T00:28:19.513Z,94023.00
2023-04-11T00:32:44.159Z,94038.00
2023-04-11T00:37:12.835Z,94014.00
2023-04-11T00:42:34.009Z,94024.00
2023-04-11T00:47:03.175Z,94008.00
2023-04-11T00:51:21.166Z,94001.00
2023-04-11T00:55:41.865Z,93971.00
2023-04-11T01:00:15.477Z,93993.00
2023-04-11T01:05:06.958Z,94007.00
2023-04-11T01:09:34.777Z,93971.00
2023-04-11T01:18:21.857Z,93974.00
2023-04-11T01:23:29.874Z,93989.00
2023-04-11T01:28:23.496Z,93979.00
2023-04-11T01:32:57.942Z,93953.00
2023-04-11T01:37:42.063Z,93958.00
2023-04-11T01:42:05.832Z,93943.00
2023-04-11T01:46:19.904Z,93935.00
2023-04-11T01:50:45.212Z,93932.00
2023-04-11T01:55:12.059Z,93920.00
2023-04-11T02:00:00.572Z,93924.00
2023-04-11T02:09:47.309Z,93891.00
2023-04-11T02:18:48.884Z,93877.00
2023-04-11T02:23:04.626Z,93866.00
2023-04-11T02:27:31.506Z,93852.00
2023-04-11T02:32:12.775Z,93863.00
2023-04-11T02:36:19.261Z,93859.00
2023-04-11T02:40:54.866Z,93853.00
2023-04-11T02:45:05.979Z,93838.00
2023-04-11T02:49:58.909Z,93860.00
2023-04-11T02:54:15.968Z,93837.00
2023-04-11T03:03:15.527Z,93817.00
2023-04-11T03:07:31.465Z,93824.00
2023-04-11T03:11:42.309Z,93806.00
2023-04-11T03:15:53.828Z,93811.00
2023-04-11T03:20:10.435Z,93824.00
2023-04-11T03:24:35.705Z,93822.00
2023-04-11T03:28:48.817Z,93815.00
2023-04-11T03:42:04.281Z,93812.00
2023-04-11T03:46:32.768Z,93796.00
2023-04-11T03:50:45.818Z,93801.00
2023-04-11T03:55:04.234Z,93788.00
2023-04-11T03:59:28.489Z,93770.00
2023-04-11T04:08:22.538Z,93759.00
2023-04-11T04:12:50.210Z,93755.00
2023-04-11T04:17:06.100Z,93743.00
2023-04-11T04:21:14.690Z,93750.00
2023-04-11T04:25:23.013Z,93748.00
2023-04-11T04:30:06.299Z,93750.00
2023-04-11T04:34:50.312Z,93757.00
2023-04-11T04:39:08.676Z,93735.00
2023-04-11T04:43:33.861Z,93725.00
2023-04-11T04:48:05.898Z,93736.00
2023-04-11T04:52:18.080Z,93730.00
2023-04-11T04:56:32.824Z,93710.00
2023-04-11T05:00:58.509Z,93716.00
2023-04-11T05:05:06.373Z,93711.00
2023-04-11T05:09:34.462Z,93733.00
2023-04-11T05:14:06.805Z,93706.00
2023-04-11T05:18:15.284Z,93702.00
2023-04-11T05:22:24.671Z,93701.00
2023-04-11T05:26:40.596Z,93710.00
2023-04-11T05:30:56.778Z,93696.00
2023-04-11T05:35:14.774Z,93717.00
2023-04-11T05:44:09.169Z,93718.00
2023-04-11T05:48:56.054Z,93710.00
2023-04-11T05:53:04.984Z,93712.00
2023-04-11T05:57:10.332Z,93709.00
2023-04-11T06:01:19.851Z,93707.00
2023-04-11T06:05:31.462Z,93710.00
2023-04-11T06:09:35.018Z,93710.00
2023-04-11T06:14:29.267Z,93689.00
2023-04-11T06:18:34.155Z,93691.00
2023-04-11T06:22:37.685Z,93694.00
2023-04-11T06:26:42.106Z,93681.00
2023-04-11T06:30:45.633Z,93686.00
2023-04-11T06:34:51.634Z,93680.00
2023-04-11T06:38:55.035Z,93663.00
2023-04-11T06:43:01.149Z,93665.00
2023-04-11T06:47:05.007Z,93675.00
2023-04-11T06:51:17.086Z,93680.00
2023-04-11T06:55:21.223Z,93680.00
2023-04-11T06:59:28.656Z,93678.00
2023-04-11T07:03:32.733Z,93689.00
2023-04-11T07:07:38.003Z,93688.00
2023-04-11T07:12:06.780Z,93697.00
2023-04-11T07:16:11.133Z,93697.00
2023-04-11T07:20:15.760Z,93704.00
2023-04-11T07:24:21.161Z,93714.00
2023-04-11T07:28:25.767Z,93700.00
2023-04-11T07:32:31.989Z,93703.00
2023-04-11T07:37:30.439Z,93717.00
2023-04-11T07:41:36.423Z,93697.00
2023-04-11T07:46:30.258Z,93715.00
2023-04-11T07:50:34.027Z,93709.00
2023-04-11T07:54:43.904Z,93714.00
2023-04-11T07:59:34.365Z,93708.00
2023-04-11T08:03:43.942Z,93697.00
2023-04-11T08:07:47.769Z,93689.00
2023-04-11T08:12:45.762Z,93700.00
2023-04-11T08:16:52.846Z,93702.00
2023-04-11T08:20:56.689Z,93693.00
2023-04-11T08:25:08.174Z,93685.00
2023-04-11T08:29:12.724Z,93674.00
2023-04-11T08:33:28.763Z,93665.00
2023-04-11T08:37:32.857Z,93657.00
2023-04-11T08:41:39.976Z,93639.00
2023-04-11T08:45:44.143Z,93652.00
2023-04-11T08:49:51.280Z,93634.00
2023-04-11T08:54:13.944Z,93643.00
2023-04-11T08:58:24.977Z,93640.00
2023-04-11T09:03:04.589Z,93642.00
2023-04-11T09:07:10.222Z,93641.00
2023-04-11T09:12:00.670Z,93653.00
2023-04-11T09:16:09.452Z,93636.00
2023-04-11T09:20:25.534Z,93637.00
2023-04-11T09:24:32.393Z,93637.00
2023-04-11T09:28:44.876Z,93629.00
2023-04-11T09:32:48.955Z,93610.00
2023-04-11T10:29:58.152Z,93622.00
2023-04-11T10:34:19.687Z,93602.00
2023-04-11T10:38:47.382Z,93619.00
2023-04-11T10:42:51.597Z,93588.00
2023-04-11T10:46:56.881Z,93600.00
2023-04-11T10:51:25.140Z,93606.00
2023-04-11T10:55:30.083Z,93600.00
2023-04-11T11:00:14.309Z,93591.00
2023-04-11T11:04:19.515Z,93595.00
2023-04-11T11:14:36.457Z,93596.00
2023-04-11T11:18:40.575Z,93590.00
2023-04-11T11:22:44.329Z,93599.00
2023-04-11T11:26:49.689Z,93617.00
2023-04-11T11:30:55.948Z,93625.00
2023-04-11T11:35:30.857Z,93610.00
2023-04-11T11:39:35.618Z,93603.00
2023-04-11T11:43:40.251Z,93686.00
2023-04-11T11:47:46.062Z,93687.00
2023-04-11T11:51:49.721Z,93704.00
2023-04-11T11:56:01.116Z,93709.00
2023-04-11T12:00:11.087Z,93692.00
2023-04-11T12:04:16.698Z,93687.00
2023-04-11T12:08:23.564Z,93671.00
2023-04-11T12:12:40.229Z,93705.00
2023-04-11T12:16:43.764Z,93692.00
2023-04-11T12:21:08.080Z,93660.00
2023-04-11T12:25:16.049Z,93689.00
2023-04-11T12:29:23.442Z,93694.00
2023-04-11T12:33:31.353Z,93676.00
2023-04-11T12:37:40.085Z,93659.00
2023-04-11T12:42:11.659Z,93653.00
2023-04-11T12:46:31.448Z,93689.00
2023-04-11T12:50:35.403Z,93695.00
2023-04-11T12:54:55.105Z,93691.00
2023-04-11T12:59:36.830Z,93722.00
2023-04-11T13:08:17.088Z,93694.00
2023-04-11T13:13:05.431Z,93696.00
2023-04-11T13:18:02.016Z,93686.00
2023-04-11T13:22:26.005Z,93702.00
2023-04-11T13:26:30.332Z,93717.00
2023-04-11T13:30:36.602Z,93683.00
2023-04-11T13:34:40.280Z,93671.00
2023-04-11T13:39:13.785Z,93672.00
2023-04-11T13:43:17.955Z,93659.00
2023-04-11T13:47:23.167Z,93678.00
2023-04-11T13:51:27.498Z,93660.00
2023-04-11T13:55:31.547Z,93663.00
2023-04-11T13:59:35.366Z,93666.00
2023-04-11T14:03:58.860Z,93643.00
2023-04-11T14:08:08.256Z,93672.00
2023-04-11T14:12:12.253Z,93641.00
2023-04-11T14:16:43.731Z,93664.00
2023-04-11T14:20:49.056Z,93638.00
2023-04-11T14:25:17.895Z,93657.00
2023-04-11T14:29:23.061Z,93653.00
2023-04-11T14:33:27.293Z,93650.00
2023-04-11T14:37:33.349Z,93633.00
2023-04-11T14:41:36.983Z,93642.00
2023-04-11T14:45:49.090Z,93665.00
2023-04-11T14:49:52.851Z,93665.00
2023-04-11T14:53:59.935Z,93647.00
2023-04-11T14:58:06.124Z,93643.00
2023-04-11T15:02:09.776Z,93657.00
2023-04-11T15:06:14.109Z,93633.00
2023-04-11T15:10:22.540Z,93644.00
2023-04-11T15:14:31.767Z,93653.00
2023-04-11T15:18:36.404Z,93638.00
2023-04-11T15:22:45.199Z,93639.00
2023-04-11T15:27:16.994Z,93648.00
2023-04-11T15:31:26.618Z,93628.00
2023-04-11T15:35:30.562Z,93631.00
2023-04-11T15:40:06.334Z,93646.00
2023-04-11T15:44:11.601Z,93650.00
2023-04-11T15:48:20.804Z,93657.00
2023-04-11T15:52:24.491Z,93672.00
2023-04-11T15:57:19.795Z,93669.00
2023-04-11T16:01:25.921Z,93664.00
2023-04-11T16:05:32.304Z,93664.00
2023-04-11T16:09:36.044Z,93678.00
2023-04-11T16:14:08.669Z,93674.00
2023-04-11T16:18:13.942Z,93687.00
2023-04-11T16:22:20.342Z,93682.00
2023-04-11T16:26:25.255Z,93692.00
2023-04-11T16:30:29.065Z,93684.00
2023-04-11T16:34:35.784Z,93665.00
2023-04-11T16:38:39.472Z,93747.00
2023-04-11T16:42:50.212Z,93773.00
2023-04-11T16:47:07.474Z,93779.00
2023-04-11T16:51:13.528Z,93769.00
2023-04-11T17:00:53.258Z,93818.00
2023-04-11T17:05:19.246Z,93783.00
2023-04-11T17:09:24.615Z,93762.00
2023-04-11T17:14:18.150Z,93776.00
2023-04-11T17:18:21.823Z,93786.00
2023-04-11T17:22:30.270Z,93756.00
2023-04-11T17:27:25.047Z,93765.00
2023-04-11T17:31:31.113Z,93759.00
2023-04-11T17:35:53.490Z,93759.00
2023-04-11T17:39:57.835Z,93779.00
2023-04-11T17:44:28.360Z,93804.00
2023-04-11T17:49:17.476Z,93807.00
2023-04-11T17:53:30.072Z,93847.00
2023-04-11T17:58:16.916Z,93828.00
2023-04-11T18:02:50.182Z,93782.00
2023-04-11T18:11:49.493Z,93790.00
2023-04-11T18:15:58.776Z,93806.00
2023-04-11T18:25:21.360Z,93805.00
2023-04-11T18:58:44.151Z,93798.00
2023-04-11T19:08:55.210Z,93786.00
2023-04-11T19:36:16.694Z,93803.00
2023-04-11T19:41:52.131Z,93814.00
2023-04-11T20:46:53.776Z,93835.00
2023-04-11T20:51:02.021Z,93847.00
2023-04-11T20:55:13.893Z,93840.00
2023-04-11T20:59:17.446Z,93845.00
2023-04-11T21:03:22.907Z,93848.00
2023-04-11T21:07:26.675Z,93840.00
2023-04-11T21:11:30.415Z,93866.00
2023-04-11T21:15:35.233Z,93838.00
2023-04-11T21:19:42.513Z,93852.00
2023-04-11T21:23:46.168Z,93862.00
2023-04-11T21:27:52.096Z,93846.00
2023-04-11T21:31:55.737Z,93859.00
2023-04-11T21:36:00.775Z,93844.00
2023-04-11T21:40:06.290Z,93840.00
2023-04-11T21:44:09.860Z,93864.00
2023-04-11T21:48:13.440Z,93857.00
2023-04-11T21:53:10.919Z,93857.00
2023-04-11T21:57:15.978Z,93859.00
2023-04-11T22:01:20.958Z,93844.00
2023-04-11T22:05:36.216Z,93872.00
2023-04-11T22:09:46.565Z,93866.00
2023-04-11T22:13:52.524Z,93859.00
2023-04-11T22:18:28.077Z,93848.00
2023-04-11T22:22:32.487Z,93855.00
2023-04-11T22:26:49.266Z,93856.00
2023-04-11T22:30:54.711Z,93847.00
2023-04-11T22:34:59.760Z,93851.00
2023-04-11T22:39:16.448Z,93844.00
2023-04-11T22:43:19.975Z,93836.00
2023-04-11T22:47:25.026Z,93836.00
2023-04-11T22:51:34.012Z,93840.00
2023-04-11T22:56:24.441Z,93837.00
2023-04-11T23:00:29.153Z,93844.00
2023-04-11T23:05:22.594Z,93825.00
2023-04-11T23:09:28.471Z,93826.00
2023-04-11T23:13:32.244Z,93824.00
2023-04-11T23:17:37.829Z,93815.00
2023-04-11T23:21:41.390Z,93811.00
2023-04-11T23:25:46.364Z,93797.00
2023-04-11T23:29:59.270Z,93798.00
2023-04-11T23:34:03.195Z,93785.00
2023-04-11T23:38:06.879Z,93779.00
2023-04-11T23:42:12.468Z,93786.00
2023-04-11T23:47:34.690Z,93784.00
2023-04-11T23:51:38.376Z,93766.00
2023-04-11T23:55:43.415Z,93737.00
2023-04-11T23:59:48.652Z,93750.00
